BRU weather

Public forecast

Using degrees Celsius for public forecast. Weather courtesy of forecast.io.

Current aviation weather report (METAR) for Brussels Airport

Retrieved 2020/08/15 00:20 UTC (50 minutes ago):

EBBR 150020Z 00000KT 3500 BR SCT008 BKN013 19/18 Q1015 NOSIG

Aviation forecast (TAF) for Brussels Airport

Retrieved 2020-08-15 00:27 UTC (43 minutes ago):

TAF TAF EBBR 142310Z 1500/1606 VRB03KT 6000 FEW040 TEMPO 1500/1507 2500 BR PROB30 TEMPO 1511/1521 VRB20G35KT 2500 SHRA TSRAGR SCT030CB TEMPO 1600/1606 2500 BR